sensor_id;sensor_type;location;lat;lon;timestamp;pressure;altitude;pressure_sealevel;temperature;humidity
75409;BME280;63979;55.644;37.734;2023-04-08T00:03:06;101276.66;;;5.34;40.23
75409;BME280;63979;55.644;37.734;2023-04-08T00:08:07;101313.44;;;5.46;39.19
75409;BME280;63979;55.644;37.734;2023-04-08T00:13:08;101316.06;;;5.48;39.80
75409;BME280;63979;55.644;37.734;2023-04-08T00:18:10;101319.56;;;5.48;40.53
75409;BME280;63979;55.644;37.734;2023-04-08T00:23:11;101265.59;;;5.17;40.62
75409;BME280;63979;55.644;37.734;2023-04-08T00:28:12;101310.22;;;5.33;39.99
75409;BME280;63979;55.644;37.734;2023-04-08T00:33:14;101299.09;;;5.18;40.82
75409;BME280;63979;55.644;37.734;2023-04-08T00:38:15;101323.75;;;5.20;41.48
75409;BME280;63979;55.644;37.734;2023-04-08T00:43:16;101323.06;;;5.12;41.02
75409;BME280;63979;55.644;37.734;2023-04-08T00:48:20;101306.63;;;4.97;41.06
75409;BME280;63979;55.644;37.734;2023-04-08T00:53:21;101210.09;;;4.35;41.98
75409;BME280;63979;55.644;37.734;2023-04-08T00:58:22;101316.50;;;4.89;42.33
75409;BME280;63979;55.644;37.734;2023-04-08T01:03:41;101317.44;;;4.87;42.39
75409;BME280;63979;55.644;37.734;2023-04-08T01:08:44;101318.53;;;4.75;42.62
75409;BME280;63979;55.644;37.734;2023-04-08T01:13:48;101293.47;;;4.53;42.97
75409;BME280;63979;55.644;37.734;2023-04-08T01:18:52;101313.69;;;4.55;43.84
75409;BME280;63979;55.644;37.734;2023-04-08T01:24:00;101330.19;;;4.66;42.66
75409;BME280;63979;55.644;37.734;2023-04-08T01:29:06;101322.41;;;4.59;43.80
75409;BME280;63979;55.644;37.734;2023-04-08T01:34:09;101288.63;;;4.30;44.69
75409;BME280;63979;55.644;37.734;2023-04-08T01:39:11;101329.69;;;4.46;44.27
75409;BME280;63979;55.644;37.734;2023-04-08T01:44:14;101324.56;;;4.38;44.70
75409;BME280;63979;55.644;37.734;2023-04-08T01:49:16;101322.97;;;4.30;45.16
75409;BME280;63979;55.644;37.734;2023-04-08T01:54:18;101322.25;;;4.22;45.22
75409;BME280;63979;55.644;37.734;2023-04-08T01:59:20;101332.84;;;4.20;45.28
75409;BME280;63979;55.644;37.734;2023-04-08T02:04:23;101323.25;;;4.13;45.26
75409;BME280;63979;55.644;37.734;2023-04-08T02:09:24;101326.06;;;4.04;45.06
75409;BME280;63979;55.644;37.734;2023-04-08T02:14:27;101331.41;;;4.01;45.54
75409;BME280;63979;55.644;37.734;2023-04-08T02:19:35;101326.25;;;3.95;45.36
75409;BME280;63979;55.644;37.734;2023-04-08T02:24:40;101319.44;;;3.82;45.70
75409;BME280;63979;55.644;37.734;2023-04-08T02:29:42;101329.13;;;3.80;45.61
75409;BME280;63979;55.644;37.734;2023-04-08T02:34:45;101273.19;;;3.58;45.42
75409;BME280;63979;55.644;37.734;2023-04-08T02:39:47;101293.31;;;3.63;45.63
75409;BME280;63979;55.644;37.734;2023-04-08T02:44:48;101340.50;;;3.85;45.57
75409;BME280;63979;55.644;37.734;2023-04-08T02:49:49;101296.88;;;3.61;45.44
75409;BME280;63979;55.644;37.734;2023-04-08T02:54:52;101332.63;;;3.80;45.84
75409;BME280;63979;55.644;37.734;2023-04-08T02:59:53;101335.31;;;3.79;46.34
75409;BME280;63979;55.644;37.734;2023-04-08T03:04:55;101343.03;;;3.92;45.66
75409;BME280;63979;55.644;37.734;2023-04-08T03:09:56;101346.59;;;3.90;46.18
75409;BME280;63979;55.644;37.734;2023-04-08T03:14:57;101345.72;;;3.89;46.20
75409;BME280;63979;55.644;37.734;2023-04-08T03:19:59;101338.69;;;3.88;46.01
75409;BME280;63979;55.644;37.734;2023-04-08T03:25:00;101343.75;;;4.00;46.35
75409;BME280;63979;55.644;37.734;2023-04-08T03:30:01;101361.06;;;4.18;45.88
75409;BME280;63979;55.644;37.734;2023-04-08T03:35:05;101356.44;;;4.31;45.85
75409;BME280;63979;55.644;37.734;2023-04-08T03:40:07;101359.78;;;4.41;45.32
75409;BME280;63979;55.644;37.734;2023-04-08T03:45:08;101357.84;;;4.49;45.37
75409;BME280;63979;55.644;37.734;2023-04-08T03:50:10;101357.63;;;4.61;45.11
75409;BME280;63979;55.644;37.734;2023-04-08T03:55:11;101361.75;;;4.76;45.28
75409;BME280;63979;55.644;37.734;2023-04-08T04:00:14;101379.88;;;4.95;44.82
75409;BME280;63979;55.644;37.734;2023-04-08T04:05:15;101359.06;;;5.20;44.22
75409;BME280;63979;55.644;37.734;2023-04-08T04:10:16;101351.34;;;5.48;43.50
75409;BME280;63979;55.644;37.734;2023-04-08T04:15:17;101379.06;;;5.72;42.78
75409;BME280;63979;55.644;37.734;2023-04-08T04:20:18;101356.31;;;6.01;42.06
75409;BME280;63979;55.644;37.734;2023-04-08T04:25:19;101353.78;;;5.96;42.25
75409;BME280;63979;55.644;37.734;2023-04-08T04:30:21;101377.41;;;6.39;41.76
75409;BME280;63979;55.644;37.734;2023-04-08T04:35:22;101320.88;;;6.37;41.43
75409;BME280;63979;55.644;37.734;2023-04-08T04:40:23;101367.94;;;7.24;40.46
75409;BME280;63979;55.644;37.734;2023-04-08T04:45:24;101375.78;;;7.84;39.39
75409;BME280;63979;55.644;37.734;2023-04-08T04:50:25;101374.81;;;7.87;39.18
75409;BME280;63979;55.644;37.734;2023-04-08T04:55:26;101393.50;;;8.39;38.74
75409;BME280;63979;55.644;37.734;2023-04-08T05:00:27;101379.53;;;8.83;36.90
75409;BME280;63979;55.644;37.734;2023-04-08T05:05:28;101379.47;;;9.31;36.62
75409;BME280;63979;55.644;37.734;2023-04-08T05:10:31;101372.09;;;10.26;35.15
75409;BME280;63979;55.644;37.734;2023-04-08T05:15:31;101376.63;;;12.69;30.32
75409;BME280;63979;55.644;37.734;2023-04-08T05:20:32;101375.16;;;15.41;26.64
75409;BME280;63979;55.644;37.734;2023-04-08T05:25:33;101396.13;;;17.35;23.53
75409;BME280;63979;55.644;37.734;2023-04-08T05:30:34;101410.50;;;18.57;22.38
75409;BME280;63979;55.644;37.734;2023-04-08T05:35:35;101401.09;;;19.31;21.77
75409;BME280;63979;55.644;37.734;2023-04-08T05:40:36;101412.38;;;20.14;20.38
75409;BME280;63979;55.644;37.734;2023-04-08T05:45:37;101416.06;;;20.77;20.00
75409;BME280;63979;55.644;37.734;2023-04-08T05:50:38;101405.44;;;20.85;18.84
75409;BME280;63979;55.644;37.734;2023-04-08T05:55:39;101409.88;;;21.68;19.14
75409;BME280;63979;55.644;37.734;2023-04-08T06:00:40;101414.06;;;22.99;17.87
75409;BME280;63979;55.644;37.734;2023-04-08T06:05:41;101406.38;;;23.69;17.44
75409;BME280;63979;55.644;37.734;2023-04-08T06:10:49;101395.81;;;23.56;16.24
75409;BME280;63979;55.644;37.734;2023-04-08T06:15:50;101398.63;;;24.55;16.94
75409;BME280;63979;55.644;37.734;2023-04-08T06:20:52;101403.34;;;24.00;16.74
75409;BME280;63979;55.644;37.734;2023-04-08T06:25:53;101416.19;;;24.35;16.39
75409;BME280;63979;55.644;37.734;2023-04-08T06:30:54;101408.03;;;25.48;15.25
75409;BME280;63979;55.644;37.734;2023-04-08T06:36:05;101380.22;;;25.61;14.90
75409;BME280;63979;55.644;37.734;2023-04-08T06:41:08;101414.50;;;27.37;14.20
75409;BME280;63979;55.644;37.734;2023-04-08T06:46:09;101414.53;;;27.92;14.21
75409;BME280;63979;55.644;37.734;2023-04-08T06:51:11;101414.81;;;27.98;12.84
75409;BME280;63979;55.644;37.734;2023-04-08T06:56:12;101405.75;;;28.28;13.81
75409;BME280;63979;55.644;37.734;2023-04-08T07:01:13;101404.56;;;28.22;13.65
75409;BME280;63979;55.644;37.734;2023-04-08T07:06:16;101400.00;;;29.21;12.76
75409;BME280;63979;55.644;37.734;2023-04-08T07:11:17;101407.03;;;29.38;11.94
75409;BME280;63979;55.644;37.734;2023-04-08T07:16:18;101406.25;;;30.39;11.54
75409;BME280;63979;55.644;37.734;2023-04-08T07:21:19;101411.41;;;30.64;11.84
75409;BME280;63979;55.644;37.734;2023-04-08T07:26:20;101396.53;;;31.14;11.64
75409;BME280;63979;55.644;37.734;2023-04-08T07:31:22;101386.97;;;31.10;11.05
75409;BME280;63979;55.644;37.734;2023-04-08T07:36:22;101398.16;;;31.02;11.59
75409;BME280;63979;55.644;37.734;2023-04-08T07:41:23;101384.75;;;30.14;11.75
75409;BME280;63979;55.644;37.734;2023-04-08T07:46:24;101393.69;;;30.16;11.83
75409;BME280;63979;55.644;37.734;2023-04-08T07:51:26;101407.56;;;31.36;11.14
75409;BME280;63979;55.644;37.734;2023-04-08T07:56:27;101400.47;;;33.03;10.22
75409;BME280;63979;55.644;37.734;2023-04-08T08:01:28;101401.56;;;33.93;9.35
75409;BME280;63979;55.644;37.734;2023-04-08T08:06:30;101388.81;;;35.11;8.79
75409;BME280;63979;55.644;37.734;2023-04-08T08:11:34;101395.06;;;35.25;8.89
75409;BME280;63979;55.644;37.734;2023-04-08T08:16:35;101391.34;;;33.87;9.40
75409;BME280;63979;55.644;37.734;2023-04-08T08:21:39;101398.13;;;34.67;9.54
75409;BME280;63979;55.644;37.734;2023-04-08T08:26:40;101390.69;;;34.29;9.35
75409;BME280;63979;55.644;37.734;2023-04-08T08:31:41;101384.03;;;35.43;9.26
75409;BME280;63979;55.644;37.734;2023-04-08T08:36:42;101375.22;;;35.03;8.85
75409;BME280;63979;55.644;37.734;2023-04-08T08:41:43;101365.94;;;35.34;9.41
75409;BME280;63979;55.644;37.734;2023-04-08T08:46:44;101365.34;;;35.87;8.22
75409;BME280;63979;55.644;37.734;2023-04-08T08:51:48;101360.88;;;36.69;7.38
75409;BME280;63979;55.644;37.734;2023-04-08T08:56:49;101374.47;;;35.39;8.28
75409;BME280;63979;55.644;37.734;2023-04-08T09:01:51;101371.34;;;32.00;10.45
75409;BME280;63979;55.644;37.734;2023-04-08T09:07:09;101359.88;;;31.20;10.79
75409;BME280;63979;55.644;37.734;2023-04-08T09:12:10;101320.09;;;31.43;10.74
75409;BME280;63979;55.644;37.734;2023-04-08T09:17:11;101351.94;;;32.80;9.46
75409;BME280;63979;55.644;37.734;2023-04-08T09:22:13;101359.09;;;33.41;10.03
75409;BME280;63979;55.644;37.734;2023-04-08T09:27:13;101362.00;;;31.18;10.63
75409;BME280;63979;55.644;37.734;2023-04-08T09:32:15;101356.56;;;32.27;9.88
75409;BME280;63979;55.644;37.734;2023-04-08T09:37:16;101360.94;;;30.63;10.89
75409;BME280;63979;55.644;37.734;2023-04-08T09:42:18;101340.22;;;31.71;10.59
75409;BME280;63979;55.644;37.734;2023-04-08T09:47:24;101350.53;;;31.97;9.74
75409;BME280;63979;55.644;37.734;2023-04-08T09:52:46;101316.75;;;32.15;10.05
75409;BME280;63979;55.644;37.734;2023-04-08T09:58:14;101346.00;;;31.89;9.92
75409;BME280;63979;55.644;37.734;2023-04-08T10:03:33;101340.44;;;32.64;9.68
75409;BME280;63979;55.644;37.734;2023-04-08T10:08:36;101323.09;;;33.28;9.47
75409;BME280;63979;55.644;37.734;2023-04-08T10:13:37;101325.53;;;34.14;9.92
75409;BME280;63979;55.644;37.734;2023-04-08T10:18:38;101336.94;;;33.47;9.62
75409;BME280;63979;55.644;37.734;2023-04-08T10:23:55;101329.69;;;36.25;8.39
75409;BME280;63979;55.644;37.734;2023-04-08T10:34:29;101328.22;;;33.89;8.84
75409;BME280;63979;55.644;37.734;2023-04-08T10:39:31;101323.00;;;32.63;9.97
75409;BME280;63979;55.644;37.734;2023-04-08T10:44:32;101326.22;;;31.73;10.11
75409;BME280;63979;55.644;37.734;2023-04-08T10:49:33;101307.31;;;33.93;9.08
75409;BME280;63979;55.644;37.734;2023-04-08T10:54:36;101307.47;;;35.47;8.55
75409;BME280;63979;55.644;37.734;2023-04-08T10:59:37;101271.28;;;35.36;8.37
75409;BME280;63979;55.644;37.734;2023-04-08T11:04:41;101307.47;;;34.29;8.25
75409;BME280;63979;55.644;37.734;2023-04-08T11:09:42;101295.09;;;32.91;10.45
75409;BME280;63979;55.644;37.734;2023-04-08T11:14:43;101280.22;;;32.66;10.17
75409;BME280;63979;55.644;37.734;2023-04-08T11:19:45;101278.50;;;31.51;10.63
75409;BME280;63979;55.644;37.734;2023-04-08T11:24:46;101281.16;;;30.62;11.28
75409;BME280;63979;55.644;37.734;2023-04-08T11:29:47;101268.59;;;30.59;11.50
75409;BME280;63979;55.644;37.734;2023-04-08T11:34:49;101273.91;;;29.90;12.32
75409;BME280;63979;55.644;37.734;2023-04-08T11:39:50;101255.22;;;31.67;10.89
75409;BME280;63979;55.644;37.734;2023-04-08T11:44:52;101263.59;;;33.95;9.78
75409;BME280;63979;55.644;37.734;2023-04-08T11:49:53;101258.91;;;32.13;10.54
75409;BME280;63979;55.644;37.734;2023-04-08T11:54:54;101243.97;;;31.20;11.06
75409;BME280;63979;55.644;37.734;2023-04-08T11:59:55;101247.47;;;29.09;12.74
75409;BME280;63979;55.644;37.734;2023-04-08T12:04:56;101229.88;;;30.67;11.51
75409;BME280;63979;55.644;37.734;2023-04-08T12:09:57;101240.75;;;31.58;11.45
75409;BME280;63979;55.644;37.734;2023-04-08T12:14:58;101226.41;;;31.95;11.26
75409;BME280;63979;55.644;37.734;2023-04-08T12:19:58;101209.31;;;31.65;11.06
75409;BME280;63979;55.644;37.734;2023-04-08T12:25:04;101217.31;;;31.34;11.44
75409;BME280;63979;55.644;37.734;2023-04-08T12:30:06;101216.66;;;30.91;11.30
75409;BME280;63979;55.644;37.734;2023-04-08T12:35:07;101204.44;;;29.16;12.77
75409;BME280;63979;55.644;37.734;2023-04-08T12:40:08;101209.34;;;28.47;13.34
75409;BME280;63979;55.644;37.734;2023-04-08T12:45:10;101201.34;;;27.54;13.96
75409;BME280;63979;55.644;37.734;2023-04-08T12:50:12;101206.31;;;26.80;14.76
75409;BME280;63979;55.644;37.734;2023-04-08T12:55:13;101192.25;;;26.83;15.27
75409;BME280;63979;55.644;37.734;2023-04-08T13:00:14;101186.06;;;26.18;14.33
75409;BME280;63979;55.644;37.734;2023-04-08T13:05:15;101188.97;;;26.16;15.06
75409;BME280;63979;55.644;37.734;2023-04-08T13:10:17;101179.41;;;24.19;16.79
75409;BME280;63979;55.644;37.734;2023-04-08T13:15:18;101168.53;;;23.12;17.92
75409;BME280;63979;55.644;37.734;2023-04-08T13:20:19;101150.47;;;23.11;18.29
75409;BME280;63979;55.644;37.734;2023-04-08T13:25:23;101170.81;;;22.80;18.01
75409;BME280;63979;55.644;37.734;2023-04-08T13:30:23;101164.34;;;22.16;19.26
75409;BME280;63979;55.644;37.734;2023-04-08T13:35:25;101154.34;;;21.78;19.79
75409;BME280;63979;55.644;37.734;2023-04-08T13:40:26;101156.00;;;21.02;20.36
75409;BME280;63979;55.644;37.734;2023-04-08T13:45:27;101160.09;;;21.36;20.15
75409;BME280;63979;55.644;37.734;2023-04-08T13:50:28;101156.72;;;21.04;20.50
75409;BME280;63979;55.644;37.734;2023-04-08T13:55:29;101124.59;;;20.59;20.14
75409;BME280;63979;55.644;37.734;2023-04-08T14:00:30;101136.25;;;20.19;21.48
75409;BME280;63979;55.644;37.734;2023-04-08T14:05:32;101125.34;;;19.15;21.62
75409;BME280;63979;55.644;37.734;2023-04-08T14:10:33;101118.94;;;18.39;21.56
75409;BME280;63979;55.644;37.734;2023-04-08T14:15:34;101130.31;;;17.98;22.54
75409;BME280;63979;55.644;37.734;2023-04-08T14:20:34;101121.47;;;17.61;23.04
75409;BME280;63979;55.644;37.734;2023-04-08T14:25:36;101104.16;;;17.18;23.06
75409;BME280;63979;55.644;37.734;2023-04-08T14:30:37;101136.06;;;17.24;23.67
75409;BME280;63979;55.644;37.734;2023-04-08T14:35:38;101135.75;;;16.68;24.52
75409;BME280;63979;55.644;37.734;2023-04-08T14:40:39;101120.94;;;16.61;25.04
75409;BME280;63979;55.644;37.734;2023-04-08T14:45:40;101125.16;;;16.52;25.29
75409;BME280;63979;55.644;37.734;2023-04-08T14:50:41;101122.03;;;16.58;25.79
75409;BME280;63979;55.644;37.734;2023-04-08T14:55:43;101120.13;;;16.22;26.78
75409;BME280;63979;55.644;37.734;2023-04-08T15:00:44;101132.25;;;16.04;26.74
75409;BME280;63979;55.644;37.734;2023-04-08T15:05:47;101121.78;;;15.99;27.48
75409;BME280;63979;55.644;37.734;2023-04-08T15:10:48;101126.50;;;15.83;27.58
75409;BME280;63979;55.644;37.734;2023-04-08T15:15:49;101095.75;;;15.47;27.57
75409;BME280;63979;55.644;37.734;2023-04-08T15:20:50;101073.28;;;15.21;28.60
75409;BME280;63979;55.644;37.734;2023-04-08T15:25:51;101111.31;;;15.29;28.58
75409;BME280;63979;55.644;37.734;2023-04-08T15:30:53;101120.19;;;15.17;29.02
75409;BME280;63979;55.644;37.734;2023-04-08T15:35:54;101107.59;;;15.05;29.15
75409;BME280;63979;55.644;37.734;2023-04-08T15:40:56;101119.16;;;14.93;29.64
75409;BME280;63979;55.644;37.734;2023-04-08T15:45:58;101118.44;;;14.77;30.36
75409;BME280;63979;55.644;37.734;2023-04-08T15:51:05;101111.75;;;14.55;30.75
75409;BME280;63979;55.644;37.734;2023-04-08T15:56:14;101128.16;;;14.51;30.81
75409;BME280;63979;55.644;37.734;2023-04-08T16:01:15;101126.34;;;14.37;31.02
75409;BME280;63979;55.644;37.734;2023-04-08T16:06:18;101111.00;;;14.11;31.42
75409;BME280;63979;55.644;37.734;2023-04-08T16:11:18;101137.38;;;14.04;31.90
75409;BME280;63979;55.644;37.734;2023-04-08T16:16:20;101139.28;;;13.88;32.29
75409;BME280;63979;55.644;37.734;2023-04-08T16:21:21;101141.44;;;13.67;32.38
75409;BME280;63979;55.644;37.734;2023-04-08T16:26:23;101147.25;;;13.59;33.07
75409;BME280;63979;55.644;37.734;2023-04-08T16:31:24;101140.78;;;13.48;33.71
75409;BME280;63979;55.644;37.734;2023-04-08T16:36:25;101139.88;;;13.33;33.87
75409;BME280;63979;55.644;37.734;2023-04-08T16:41:26;101147.94;;;13.17;34.00
75409;BME280;63979;55.644;37.734;2023-04-08T16:46:27;101134.28;;;13.06;34.31
75409;BME280;63979;55.644;37.734;2023-04-08T16:51:28;101144.69;;;12.96;34.55
75409;BME280;63979;55.644;37.734;2023-04-08T16:56:30;101156.34;;;12.95;34.91
75409;BME280;63979;55.644;37.734;2023-04-08T17:01:31;101162.06;;;12.89;35.11
75409;BME280;63979;55.644;37.734;2023-04-08T17:06:32;101163.69;;;12.76;35.49
75409;BME280;63979;55.644;37.734;2023-04-08T17:11:37;101167.66;;;12.69;35.46
75409;BME280;63979;55.644;37.734;2023-04-08T17:16:38;101169.03;;;12.60;35.85
75409;BME280;63979;55.644;37.734;2023-04-08T17:21:39;101182.53;;;12.59;36.20
75409;BME280;63979;55.644;37.734;2023-04-08T17:26:41;101168.47;;;12.38;36.33
75409;BME280;63979;55.644;37.734;2023-04-08T17:31:42;101177.28;;;12.40;36.50
75409;BME280;63979;55.644;37.734;2023-04-08T17:36:43;101119.84;;;11.97;36.47
75409;BME280;63979;55.644;37.734;2023-04-08T17:41:45;101178.31;;;12.22;36.60
75409;BME280;63979;55.644;37.734;2023-04-08T17:46:46;101192.97;;;12.14;37.74
75409;BME280;63979;55.644;37.734;2023-04-08T17:51:49;101180.22;;;12.02;37.43
75409;BME280;63979;55.644;37.734;2023-04-08T17:56:51;101186.13;;;11.92;37.26
75409;BME280;63979;55.644;37.734;2023-04-08T18:01:52;101188.75;;;11.93;37.30
75409;BME280;63979;55.644;37.734;2023-04-08T18:06:53;101191.91;;;11.84;37.78
75409;BME280;63979;55.644;37.734;2023-04-08T18:11:54;101173.13;;;11.67;38.05
75409;BME280;63979;55.644;37.734;2023-04-08T18:16:55;101130.25;;;11.34;38.69
75409;BME280;63979;55.644;37.734;2023-04-08T18:21:56;101182.50;;;11.58;38.35
75409;BME280;63979;55.644;37.734;2023-04-08T18:26:57;101180.38;;;11.47;38.52
75409;BME280;63979;55.644;37.734;2023-04-08T18:31:58;101170.75;;;11.43;38.91
75409;BME280;63979;55.644;37.734;2023-04-08T18:36:59;101183.00;;;11.30;39.09
75409;BME280;63979;55.644;37.734;2023-04-08T18:42:00;101176.16;;;11.24;39.15
75409;BME280;63979;55.644;37.734;2023-04-08T18:47:02;101178.28;;;11.18;39.40
75409;BME280;63979;55.644;37.734;2023-04-08T18:52:04;101140.50;;;10.89;39.19
75409;BME280;63979;55.644;37.734;2023-04-08T18:57:06;101177.06;;;11.06;39.62
75409;BME280;63979;55.644;37.734;2023-04-08T19:02:07;101169.88;;;10.89;39.60
75409;BME280;63979;55.644;37.734;2023-04-08T19:07:07;101177.72;;;10.92;39.54
75409;BME280;63979;55.644;37.734;2023-04-08T19:12:09;101180.63;;;10.88;39.86
75409;BME280;63979;55.644;37.734;2023-04-08T19:17:10;101180.47;;;10.91;39.95
75409;BME280;63979;55.644;37.734;2023-04-08T19:22:11;101153.91;;;10.69;39.64
75409;BME280;63979;55.644;37.734;2023-04-08T19:27:12;101159.88;;;10.76;39.65
75409;BME280;63979;55.644;37.734;2023-04-08T19:32:16;101174.88;;;10.78;39.92
75409;BME280;63979;55.644;37.734;2023-04-08T19:37:17;101173.25;;;10.74;39.92
75409;BME280;63979;55.644;37.734;2023-04-08T19:42:18;101165.22;;;10.76;39.28
75409;BME280;63979;55.644;37.734;2023-04-08T19:47:20;101170.41;;;10.79;39.76
75409;BME280;63979;55.644;37.734;2023-04-08T19:52:21;101175.66;;;10.80;39.67
75409;BME280;63979;55.644;37.734;2023-04-08T19:57:23;101181.09;;;10.79;39.05
75409;BME280;63979;55.644;37.734;2023-04-08T20:02:24;101197.81;;;10.82;39.07
75409;BME280;63979;55.644;37.734;2023-04-08T20:07:25;101194.06;;;10.86;39.36
75409;BME280;63979;55.644;37.734;2023-04-08T20:12:26;101196.72;;;10.86;39.07
75409;BME280;63979;55.644;37.734;2023-04-08T20:17:28;101193.13;;;10.87;39.51
75409;BME280;63979;55.644;37.734;2023-04-08T20:22:29;101199.84;;;10.77;39.49
75409;BME280;63979;55.644;37.734;2023-04-08T20:27:30;101193.03;;;10.70;39.80
75409;BME280;63979;55.644;37.734;2023-04-08T20:32:31;101196.94;;;10.63;40.46
75409;BME280;63979;55.644;37.734;2023-04-08T20:37:33;101197.72;;;10.65;40.27
75409;BME280;63979;55.644;37.734;2023-04-08T20:42:34;101151.53;;;10.25;40.61
75409;BME280;63979;55.644;37.734;2023-04-08T20:47:36;101207.03;;;10.56;40.94
75409;BME280;63979;55.644;37.734;2023-04-08T20:52:37;101192.53;;;10.43;41.51
75409;BME280;63979;55.644;37.734;2023-04-08T20:57:39;101194.84;;;10.51;41.54
75409;BME280;63979;55.644;37.734;2023-04-08T21:02:41;101185.41;;;10.44;41.71
75409;BME280;63979;55.644;37.734;2023-04-08T21:07:42;101193.28;;;10.26;42.30
75409;BME280;63979;55.644;37.734;2023-04-08T21:12:44;101182.44;;;10.11;42.29
75409;BME280;63979;55.644;37.734;2023-04-08T21:17:45;101200.41;;;10.06;42.99
75409;BME280;63979;55.644;37.734;2023-04-08T21:22:46;101209.84;;;9.94;43.50
75409;BME280;63979;55.644;37.734;2023-04-08T21:27:47;101151.28;;;9.70;43.61
75409;BME280;63979;55.644;37.734;2023-04-08T21:32:48;101192.44;;;9.85;43.72
75409;BME280;63979;55.644;37.734;2023-04-08T21:37:50;101194.75;;;9.93;43.57
75409;BME280;63979;55.644;37.734;2023-04-08T21:42:51;101132.16;;;9.61;43.75
75409;BME280;63979;55.644;37.734;2023-04-08T21:47:52;101180.69;;;9.89;43.88
75409;BME280;63979;55.644;37.734;2023-04-08T21:52:54;101200.16;;;9.91;43.62
75409;BME280;63979;55.644;37.734;2023-04-08T21:57:55;101214.56;;;9.87;44.62
75409;BME280;63979;55.644;37.734;2023-04-08T22:02:56;101179.09;;;9.65;44.51
75409;BME280;63979;55.644;37.734;2023-04-08T22:07:58;101168.09;;;9.52;44.07
75409;BME280;63979;55.644;37.734;2023-04-08T22:12:59;101209.50;;;9.81;44.32
75409;BME280;63979;55.644;37.734;2023-04-08T22:18:00;101194.00;;;9.69;44.50
75409;BME280;63979;55.644;37.734;2023-04-08T22:23:01;101206.53;;;9.67;44.14
75409;BME280;63979;55.644;37.734;2023-04-08T22:28:03;101157.66;;;9.26;45.12
75409;BME280;63979;55.644;37.734;2023-04-08T22:33:04;101208.28;;;9.48;45.14
75409;BME280;63979;55.644;37.734;2023-04-08T22:38:05;101225.38;;;9.42;45.26
75409;BME280;63979;55.644;37.734;2023-04-08T22:43:06;101182.00;;;8.95;46.06
75409;BME280;63979;55.644;37.734;2023-04-08T22:48:07;101221.72;;;9.23;46.23
75409;BME280;63979;55.644;37.734;2023-04-08T22:53:08;101217.75;;;9.33;45.91
75409;BME280;63979;55.644;37.734;2023-04-08T22:58:09;101203.66;;;9.09;46.33
75409;BME280;63979;55.644;37.734;2023-04-08T23:03:10;101221.84;;;9.20;46.67
75409;BME280;63979;55.644;37.734;2023-04-08T23:08:11;101216.53;;;9.20;46.37
75409;BME280;63979;55.644;37.734;2023-04-08T23:13:12;101220.56;;;9.08;46.96
75409;BME280;63979;55.644;37.734;2023-04-08T23:18:13;101215.69;;;8.96;47.49
75409;BME280;63979;55.644;37.734;2023-04-08T23:23:15;101220.84;;;9.00;47.18
75409;BME280;63979;55.644;37.734;2023-04-08T23:28:16;101229.88;;;8.96;47.69
75409;BME280;63979;55.644;37.734;2023-04-08T23:33:17;101226.78;;;8.85;47.70
75409;BME280;63979;55.644;37.734;2023-04-08T23:38:18;101158.31;;;8.43;47.88
75409;BME280;63979;55.644;37.734;2023-04-08T23:43:19;101240.34;;;8.79;48.16
75409;BME280;63979;55.644;37.734;2023-04-08T23:48:20;101219.47;;;8.68;48.25
75409;BME280;63979;55.644;37.734;2023-04-08T23:53:21;101230.78;;;8.73;48.42
75409;BME280;63979;55.644;37.734;2023-04-08T23:58:22;101220.66;;;8.60;48.72
